sensor_id;sensor_type;location;lat;lon;timestamp;P1;durP1;ratioP1;P2;durP2;ratioP2
20832;SDS011;56075;51.264;7.150;2023-05-10T00:01:31;17.95;;;6.10;;
20832;SDS011;56075;51.264;7.150;2023-05-10T00:04:02;17.60;;;6.32;;
20832;SDS011;56075;51.264;7.150;2023-05-10T00:06:34;17.63;;;6.72;;
20832;SDS011;56075;51.264;7.150;2023-05-10T00:09:06;17.85;;;6.25;;
20832;SDS011;56075;51.264;7.150;2023-05-10T00:11:37;17.13;;;5.68;;
20832;SDS011;56075;51.264;7.150;2023-05-10T00:14:08;19.55;;;6.32;;
20832;SDS011;56075;51.264;7.150;2023-05-10T00:16:39;20.25;;;6.45;;
20832;SDS011;56075;51.264;7.150;2023-05-10T00:19:11;24.88;;;7.00;;
20832;SDS011;56075;51.264;7.150;2023-05-10T00:21:42;18.50;;;6.32;;
20832;SDS011;56075;51.264;7.150;2023-05-10T00:24:13;22.23;;;6.65;;
20832;SDS011;56075;51.264;7.150;2023-05-10T00:26:45;23.50;;;6.88;;
20832;SDS011;56075;51.264;7.150;2023-05-10T00:29:16;21.20;;;6.15;;
20832;SDS011;56075;51.264;7.150;2023-05-10T00:31:47;23.98;;;7.20;;
20832;SDS011;56075;51.264;7.150;2023-05-10T00:34:18;22.27;;;6.97;;
20832;SDS011;56075;51.264;7.150;2023-05-10T00:36:49;26.45;;;7.78;;
20832;SDS011;56075;51.264;7.150;2023-05-10T00:39:20;19.33;;;6.53;;
20832;SDS011;56075;51.264;7.150;2023-05-10T00:41:51;20.98;;;6.35;;
20832;SDS011;56075;51.264;7.150;2023-05-10T00:44:23;21.77;;;6.60;;
20832;SDS011;56075;51.264;7.150;2023-05-10T00:46:54;23.25;;;7.28;;
20832;SDS011;56075;51.264;7.150;2023-05-10T00:49:25;22.00;;;6.43;;
20832;SDS011;56075;51.264;7.150;2023-05-10T00:51:56;22.80;;;6.93;;
20832;SDS011;56075;51.264;7.150;2023-05-10T00:54:28;23.55;;;6.32;;
20832;SDS011;56075;51.264;7.150;2023-05-10T00:56:59;22.45;;;6.50;;
20832;SDS011;56075;51.264;7.150;2023-05-10T00:59:31;25.20;;;7.13;;
20832;SDS011;56075;51.264;7.150;2023-05-10T01:02:03;23.83;;;6.97;;
20832;SDS011;56075;51.264;7.150;2023-05-10T01:04:34;22.67;;;7.40;;
20832;SDS011;56075;51.264;7.150;2023-05-10T01:07:06;22.00;;;6.95;;
20832;SDS011;56075;51.264;7.150;2023-05-10T01:09:37;19.40;;;6.60;;
20832;SDS011;56075;51.264;7.150;2023-05-10T01:12:08;22.30;;;6.47;;
20832;SDS011;56075;51.264;7.150;2023-05-10T01:14:40;27.80;;;6.80;;
20832;SDS011;56075;51.264;7.150;2023-05-10T01:17:11;26.08;;;7.18;;
20832;SDS011;56075;51.264;7.150;2023-05-10T01:19:43;25.13;;;6.20;;
20832;SDS011;56075;51.264;7.150;2023-05-10T01:22:34;25.70;;;6.63;;
20832;SDS011;56075;51.264;7.150;2023-05-10T01:34:23;24.20;;;7.03;;
20832;SDS011;56075;51.264;7.150;2023-05-10T01:37:11;24.75;;;6.72;;
20832;SDS011;56075;51.264;7.150;2023-05-10T01:39:55;30.45;;;8.05;;
20832;SDS011;56075;51.264;7.150;2023-05-10T01:42:36;26.55;;;8.27;;
20832;SDS011;56075;51.264;7.150;2023-05-10T01:45:27;29.15;;;8.93;;
20832;SDS011;56075;51.264;7.150;2023-05-10T01:48:10;39.17;;;9.52;;
20832;SDS011;56075;51.264;7.150;2023-05-10T01:50:45;33.13;;;9.77;;
20832;SDS011;56075;51.264;7.150;2023-05-10T01:53:18;36.20;;;10.57;;
20832;SDS011;56075;51.264;7.150;2023-05-10T01:55:52;34.63;;;10.20;;
20832;SDS011;56075;51.264;7.150;2023-05-10T01:58:29;37.67;;;11.20;;
20832;SDS011;56075;51.264;7.150;2023-05-10T02:01:03;38.05;;;11.07;;
20832;SDS011;56075;51.264;7.150;2023-05-10T02:03:36;34.13;;;10.77;;
20832;SDS011;56075;51.264;7.150;2023-05-10T02:06:10;34.15;;;11.07;;
20832;SDS011;56075;51.264;7.150;2023-05-10T02:08:44;30.92;;;9.60;;
20832;SDS011;56075;51.264;7.150;2023-05-10T02:11:17;31.75;;;10.20;;
20832;SDS011;56075;51.264;7.150;2023-05-10T02:13:52;35.60;;;10.65;;
20832;SDS011;56075;51.264;7.150;2023-05-10T02:16:30;30.50;;;9.40;;
20832;SDS011;56075;51.264;7.150;2023-05-10T02:19:04;27.92;;;9.30;;
20832;SDS011;56075;51.264;7.150;2023-05-10T02:21:37;25.73;;;10.20;;
20832;SDS011;56075;51.264;7.150;2023-05-10T02:24:10;33.00;;;9.60;;
20832;SDS011;56075;51.264;7.150;2023-05-10T02:26:42;27.02;;;9.32;;
20832;SDS011;56075;51.264;7.150;2023-05-10T02:29:16;30.42;;;9.90;;
20832;SDS011;56075;51.264;7.150;2023-05-10T02:31:49;29.42;;;9.48;;
20832;SDS011;56075;51.264;7.150;2023-05-10T02:34:23;27.77;;;9.70;;
20832;SDS011;56075;51.264;7.150;2023-05-10T02:36:56;33.85;;;9.50;;
20832;SDS011;56075;51.264;7.150;2023-05-10T02:39:28;31.42;;;10.32;;
20832;SDS011;56075;51.264;7.150;2023-05-10T02:42:02;25.83;;;9.70;;
20832;SDS011;56075;51.264;7.150;2023-05-10T02:44:34;31.38;;;9.52;;
20832;SDS011;56075;51.264;7.150;2023-05-10T02:47:07;27.25;;;9.93;;
20832;SDS011;56075;51.264;7.150;2023-05-10T02:49:39;26.92;;;9.43;;
20832;SDS011;56075;51.264;7.150;2023-05-10T02:52:10;28.08;;;10.25;;
20832;SDS011;56075;51.264;7.150;2023-05-10T02:54:50;29.42;;;9.82;;
20832;SDS011;56075;51.264;7.150;2023-05-10T02:57:34;26.10;;;9.10;;
20832;SDS011;56075;51.264;7.150;2023-05-10T03:00:09;30.05;;;9.48;;
20832;SDS011;56075;51.264;7.150;2023-05-10T03:02:40;28.92;;;9.80;;
20832;SDS011;56075;51.264;7.150;2023-05-10T03:05:13;27.55;;;9.55;;
20832;SDS011;56075;51.264;7.150;2023-05-10T03:07:44;30.40;;;9.93;;
20832;SDS011;56075;51.264;7.150;2023-05-10T03:10:16;26.33;;;8.57;;
20832;SDS011;56075;51.264;7.150;2023-05-10T03:16:10;24.35;;;7.88;;
20832;SDS011;56075;51.264;7.150;2023-05-10T03:18:54;26.10;;;8.50;;
20832;SDS011;56075;51.264;7.150;2023-05-10T03:21:32;25.83;;;9.02;;
20832;SDS011;56075;51.264;7.150;2023-05-10T03:26:37;25.83;;;9.88;;
20832;SDS011;56075;51.264;7.150;2023-05-10T03:29:17;30.30;;;8.52;;
20832;SDS011;56075;51.264;7.150;2023-05-10T03:31:50;28.33;;;9.27;;
20832;SDS011;56075;51.264;7.150;2023-05-10T03:34:24;31.50;;;10.10;;
20832;SDS011;56075;51.264;7.150;2023-05-10T03:36:56;29.85;;;9.60;;
20832;SDS011;56075;51.264;7.150;2023-05-10T03:39:29;27.95;;;9.77;;
20832;SDS011;56075;51.264;7.150;2023-05-10T03:42:03;31.60;;;9.68;;
20832;SDS011;56075;51.264;7.150;2023-05-10T03:44:35;29.02;;;9.43;;
20832;SDS011;56075;51.264;7.150;2023-05-10T03:47:06;29.83;;;9.25;;
20832;SDS011;56075;51.264;7.150;2023-05-10T03:49:37;33.20;;;10.52;;
20832;SDS011;56075;51.264;7.150;2023-05-10T03:52:08;33.72;;;10.63;;
20832;SDS011;56075;51.264;7.150;2023-05-10T03:54:40;34.03;;;10.98;;
20832;SDS011;56075;51.264;7.150;2023-05-10T03:57:11;34.70;;;11.98;;
20832;SDS011;56075;51.264;7.150;2023-05-10T03:59:42;43.33;;;12.48;;
20832;SDS011;56075;51.264;7.150;2023-05-10T04:02:13;37.88;;;12.02;;
20832;SDS011;56075;51.264;7.150;2023-05-10T04:04:45;39.63;;;12.60;;
20832;SDS011;56075;51.264;7.150;2023-05-10T04:07:16;46.53;;;13.07;;
20832;SDS011;56075;51.264;7.150;2023-05-10T04:09:47;47.40;;;13.35;;
20832;SDS011;56075;51.264;7.150;2023-05-10T04:12:18;46.95;;;12.98;;
20832;SDS011;56075;51.264;7.150;2023-05-10T04:14:49;47.97;;;14.10;;
20832;SDS011;56075;51.264;7.150;2023-05-10T04:17:21;43.38;;;12.35;;
20832;SDS011;56075;51.264;7.150;2023-05-10T04:19:52;52.90;;;13.27;;
20832;SDS011;56075;51.264;7.150;2023-05-10T04:22:25;49.05;;;12.95;;
20832;SDS011;56075;51.264;7.150;2023-05-10T04:24:56;49.08;;;13.35;;
20832;SDS011;56075;51.264;7.150;2023-05-10T04:27:27;49.80;;;13.38;;
20832;SDS011;56075;51.264;7.150;2023-05-10T04:29:58;49.70;;;13.50;;
20832;SDS011;56075;51.264;7.150;2023-05-10T04:32:30;50.53;;;14.02;;
20832;SDS011;56075;51.264;7.150;2023-05-10T04:35:01;45.70;;;12.35;;
20832;SDS011;56075;51.264;7.150;2023-05-10T04:37:35;54.30;;;13.55;;
20832;SDS011;56075;51.264;7.150;2023-05-10T04:40:07;63.30;;;14.35;;
20832;SDS011;56075;51.264;7.150;2023-05-10T04:42:39;58.05;;;14.77;;
20832;SDS011;56075;51.264;7.150;2023-05-10T04:45:12;59.30;;;15.55;;
20832;SDS011;56075;51.264;7.150;2023-05-10T04:47:45;70.93;;;16.50;;
20832;SDS011;56075;51.264;7.150;2023-05-10T04:50:16;79.97;;;17.65;;
20832;SDS011;56075;51.264;7.150;2023-05-10T04:52:47;68.07;;;16.27;;
20832;SDS011;56075;51.264;7.150;2023-05-10T04:55:19;68.20;;;16.58;;
20832;SDS011;56075;51.264;7.150;2023-05-10T04:57:50;62.90;;;15.95;;
20832;SDS011;56075;51.264;7.150;2023-05-10T05:00:21;67.43;;;16.63;;
20832;SDS011;56075;51.264;7.150;2023-05-10T05:02:53;66.88;;;17.00;;
20832;SDS011;56075;51.264;7.150;2023-05-10T05:05:24;74.32;;;18.40;;
20832;SDS011;56075;51.264;7.150;2023-05-10T05:07:55;71.28;;;17.52;;
20832;SDS011;56075;51.264;7.150;2023-05-10T05:10:26;82.88;;;18.73;;
20832;SDS011;56075;51.264;7.150;2023-05-10T05:12:57;78.40;;;18.15;;
20832;SDS011;56075;51.264;7.150;2023-05-10T05:15:29;81.80;;;19.42;;
20832;SDS011;56075;51.264;7.150;2023-05-10T05:18:01;84.03;;;19.60;;
20832;SDS011;56075;51.264;7.150;2023-05-10T05:20:32;86.32;;;19.67;;
20832;SDS011;56075;51.264;7.150;2023-05-10T05:23:04;90.43;;;20.67;;
20832;SDS011;56075;51.264;7.150;2023-05-10T05:25:35;89.68;;;20.15;;
20832;SDS011;56075;51.264;7.150;2023-05-10T05:28:06;75.35;;;19.13;;
20832;SDS011;56075;51.264;7.150;2023-05-10T05:30:38;81.35;;;19.42;;
20832;SDS011;56075;51.264;7.150;2023-05-10T05:33:09;75.45;;;19.42;;
20832;SDS011;56075;51.264;7.150;2023-05-10T05:35:41;73.18;;;18.55;;
20832;SDS011;56075;51.264;7.150;2023-05-10T05:38:13;76.30;;;18.13;;
20832;SDS011;56075;51.264;7.150;2023-05-10T05:40:44;85.78;;;19.67;;
20832;SDS011;56075;51.264;7.150;2023-05-10T05:43:16;79.60;;;19.27;;
20832;SDS011;56075;51.264;7.150;2023-05-10T05:45:47;75.50;;;18.23;;
20832;SDS011;56075;51.264;7.150;2023-05-10T05:48:18;72.25;;;17.85;;
20832;SDS011;56075;51.264;7.150;2023-05-10T05:50:49;78.60;;;18.42;;
20832;SDS011;56075;51.264;7.150;2023-05-10T05:53:20;63.75;;;18.13;;
20832;SDS011;56075;51.264;7.150;2023-05-10T05:55:55;69.95;;;18.52;;
20832;SDS011;56075;51.264;7.150;2023-05-10T05:58:27;74.38;;;18.92;;
20832;SDS011;56075;51.264;7.150;2023-05-10T06:00:58;78.20;;;19.63;;
20832;SDS011;56075;51.264;7.150;2023-05-10T06:03:29;70.45;;;18.23;;
20832;SDS011;56075;51.264;7.150;2023-05-10T06:06:00;62.85;;;17.88;;
20832;SDS011;56075;51.264;7.150;2023-05-10T06:08:32;67.47;;;17.40;;
20832;SDS011;56075;51.264;7.150;2023-05-10T06:11:04;66.53;;;18.15;;
20832;SDS011;56075;51.264;7.150;2023-05-10T06:13:35;61.72;;;18.52;;
20832;SDS011;56075;51.264;7.150;2023-05-10T06:16:06;61.75;;;19.38;;
20832;SDS011;56075;51.264;7.150;2023-05-10T06:18:37;62.72;;;18.83;;
20832;SDS011;56075;51.264;7.150;2023-05-10T06:21:09;63.00;;;19.58;;
20832;SDS011;56075;51.264;7.150;2023-05-10T06:23:40;54.72;;;17.88;;
20832;SDS011;56075;51.264;7.150;2023-05-10T06:26:11;53.78;;;18.08;;
20832;SDS011;56075;51.264;7.150;2023-05-10T06:28:42;50.47;;;17.13;;
20832;SDS011;56075;51.264;7.150;2023-05-10T06:31:13;52.67;;;17.08;;
20832;SDS011;56075;51.264;7.150;2023-05-10T06:33:45;51.33;;;16.33;;
20832;SDS011;56075;51.264;7.150;2023-05-10T06:36:16;46.53;;;15.27;;
20832;SDS011;56075;51.264;7.150;2023-05-10T06:38:47;40.45;;;14.32;;
20832;SDS011;56075;51.264;7.150;2023-05-10T06:41:19;40.50;;;13.98;;
20832;SDS011;56075;51.264;7.150;2023-05-10T06:43:50;40.47;;;14.38;;
20832;SDS011;56075;51.264;7.150;2023-05-10T06:46:22;33.45;;;12.73;;
20832;SDS011;56075;51.264;7.150;2023-05-10T06:48:53;41.92;;;13.40;;
20832;SDS011;56075;51.264;7.150;2023-05-10T06:51:24;49.63;;;15.43;;
20832;SDS011;56075;51.264;7.150;2023-05-10T06:53:55;54.55;;;16.88;;
20832;SDS011;56075;51.264;7.150;2023-05-10T06:56:27;44.35;;;14.93;;
20832;SDS011;56075;51.264;7.150;2023-05-10T06:58:58;47.22;;;16.77;;
20832;SDS011;56075;51.264;7.150;2023-05-10T07:01:29;44.22;;;14.88;;
20832;SDS011;56075;51.264;7.150;2023-05-10T07:04:00;44.35;;;14.48;;
20832;SDS011;56075;51.264;7.150;2023-05-10T07:06:34;44.85;;;14.90;;
20832;SDS011;56075;51.264;7.150;2023-05-10T07:09:05;40.83;;;13.82;;
20832;SDS011;56075;51.264;7.150;2023-05-10T07:11:36;43.60;;;13.88;;
20832;SDS011;56075;51.264;7.150;2023-05-10T07:14:08;35.72;;;12.93;;
20832;SDS011;56075;51.264;7.150;2023-05-10T07:16:39;42.78;;;13.82;;
20832;SDS011;56075;51.264;7.150;2023-05-10T07:19:10;40.15;;;13.35;;
20832;SDS011;56075;51.264;7.150;2023-05-10T07:21:41;47.58;;;14.60;;
20832;SDS011;56075;51.264;7.150;2023-05-10T07:24:13;42.60;;;14.50;;
20832;SDS011;56075;51.264;7.150;2023-05-10T07:26:44;46.05;;;15.82;;
20832;SDS011;56075;51.264;7.150;2023-05-10T07:29:15;42.92;;;14.77;;
20832;SDS011;56075;51.264;7.150;2023-05-10T07:31:47;45.57;;;17.10;;
20832;SDS011;56075;51.264;7.150;2023-05-10T07:34:18;36.75;;;14.20;;
20832;SDS011;56075;51.264;7.150;2023-05-10T07:36:49;40.75;;;14.68;;
20832;SDS011;56075;51.264;7.150;2023-05-10T07:39:20;36.88;;;14.10;;
20832;SDS011;56075;51.264;7.150;2023-05-10T07:41:51;40.22;;;14.25;;
20832;SDS011;56075;51.264;7.150;2023-05-10T07:44:22;35.00;;;13.32;;
20832;SDS011;56075;51.264;7.150;2023-05-10T07:46:53;35.03;;;12.88;;
20832;SDS011;56075;51.264;7.150;2023-05-10T07:49:25;40.45;;;12.93;;
20832;SDS011;56075;51.264;7.150;2023-05-10T07:51:56;33.63;;;12.50;;
20832;SDS011;56075;51.264;7.150;2023-05-10T07:54:27;33.65;;;12.02;;
20832;SDS011;56075;51.264;7.150;2023-05-10T07:56:59;28.70;;;10.98;;
20832;SDS011;56075;51.264;7.150;2023-05-10T07:59:31;32.50;;;11.30;;
20832;SDS011;56075;51.264;7.150;2023-05-10T08:02:03;31.05;;;10.88;;
20832;SDS011;56075;51.264;7.150;2023-05-10T08:04:34;27.02;;;11.23;;
20832;SDS011;56075;51.264;7.150;2023-05-10T08:07:05;26.33;;;10.60;;
20832;SDS011;56075;51.264;7.150;2023-05-10T08:09:37;24.17;;;10.27;;
20832;SDS011;56075;51.264;7.150;2023-05-10T08:12:08;26.83;;;10.07;;
20832;SDS011;56075;51.264;7.150;2023-05-10T08:14:39;22.90;;;10.13;;
20832;SDS011;56075;51.264;7.150;2023-05-10T08:17:11;25.30;;;9.63;;
20832;SDS011;56075;51.264;7.150;2023-05-10T08:19:42;28.58;;;10.07;;
20832;SDS011;56075;51.264;7.150;2023-05-10T08:22:13;25.10;;;9.88;;
20832;SDS011;56075;51.264;7.150;2023-05-10T08:24:44;27.55;;;10.25;;
20832;SDS011;56075;51.264;7.150;2023-05-10T08:27:15;26.20;;;10.10;;
20832;SDS011;56075;51.264;7.150;2023-05-10T08:29:46;21.67;;;9.77;;
20832;SDS011;56075;51.264;7.150;2023-05-10T08:32:17;27.75;;;10.57;;
20832;SDS011;56075;51.264;7.150;2023-05-10T08:34:49;25.10;;;10.45;;
20832;SDS011;56075;51.264;7.150;2023-05-10T08:37:20;28.73;;;10.55;;
20832;SDS011;56075;51.264;7.150;2023-05-10T08:39:51;32.13;;;10.90;;
20832;SDS011;56075;51.264;7.150;2023-05-10T08:42:22;31.70;;;11.00;;
20832;SDS011;56075;51.264;7.150;2023-05-10T08:44:59;32.15;;;10.85;;
20832;SDS011;56075;51.264;7.150;2023-05-10T08:47:30;28.85;;;10.68;;
20832;SDS011;56075;51.264;7.150;2023-05-10T08:50:02;27.35;;;10.43;;
20832;SDS011;56075;51.264;7.150;2023-05-10T08:52:34;24.75;;;9.13;;
20832;SDS011;56075;51.264;7.150;2023-05-10T08:55:10;27.35;;;9.70;;
20832;SDS011;56075;51.264;7.150;2023-05-10T08:57:41;27.98;;;9.40;;
20832;SDS011;56075;51.264;7.150;2023-05-10T09:00:13;22.73;;;8.52;;
20832;SDS011;56075;51.264;7.150;2023-05-10T09:02:45;26.08;;;9.05;;
20832;SDS011;56075;51.264;7.150;2023-05-10T09:05:19;23.00;;;9.10;;
20832;SDS011;56075;51.264;7.150;2023-05-10T09:07:50;20.52;;;8.60;;
20832;SDS011;56075;51.264;7.150;2023-05-10T09:10:22;21.70;;;9.07;;
20832;SDS011;56075;51.264;7.150;2023-05-10T09:12:56;22.38;;;9.68;;
20832;SDS011;56075;51.264;7.150;2023-05-10T09:15:28;27.50;;;10.73;;
20832;SDS011;56075;51.264;7.150;2023-05-10T09:17:59;28.45;;;11.25;;
20832;SDS011;56075;51.264;7.150;2023-05-10T09:20:32;29.15;;;11.70;;
20832;SDS011;56075;51.264;7.150;2023-05-10T09:23:03;30.10;;;11.93;;
20832;SDS011;56075;51.264;7.150;2023-05-10T09:25:35;33.65;;;13.10;;
20832;SDS011;56075;51.264;7.150;2023-05-10T09:28:08;36.40;;;13.38;;
20832;SDS011;56075;51.264;7.150;2023-05-10T09:30:40;34.80;;;13.60;;
20832;SDS011;56075;51.264;7.150;2023-05-10T09:33:11;38.85;;;13.32;;
20832;SDS011;56075;51.264;7.150;2023-05-10T09:35:42;35.30;;;13.40;;
20832;SDS011;56075;51.264;7.150;2023-05-10T09:38:14;34.47;;;12.38;;
20832;SDS011;56075;51.264;7.150;2023-05-10T09:40:50;32.35;;;13.32;;
20832;SDS011;56075;51.264;7.150;2023-05-10T09:43:25;28.23;;;11.02;;
20832;SDS011;56075;51.264;7.150;2023-05-10T09:45:57;35.13;;;13.07;;
20832;SDS011;56075;51.264;7.150;2023-05-10T09:48:28;30.73;;;12.07;;
20832;SDS011;56075;51.264;7.150;2023-05-10T09:51:00;32.47;;;12.30;;
20832;SDS011;56075;51.264;7.150;2023-05-10T09:53:31;33.17;;;12.23;;
20832;SDS011;56075;51.264;7.150;2023-05-10T09:56:02;32.28;;;12.68;;
20832;SDS011;56075;51.264;7.150;2023-05-10T09:58:35;35.22;;;13.57;;
20832;SDS011;56075;51.264;7.150;2023-05-10T10:01:11;38.03;;;14.00;;
20832;SDS011;56075;51.264;7.150;2023-05-10T10:03:42;41.90;;;14.38;;
20832;SDS011;56075;51.264;7.150;2023-05-10T10:06:18;34.08;;;12.68;;
20832;SDS011;56075;51.264;7.150;2023-05-10T10:08:50;41.00;;;15.20;;
20832;SDS011;56075;51.264;7.150;2023-05-10T10:11:21;36.58;;;14.23;;
20832;SDS011;56075;51.264;7.150;2023-05-10T10:13:54;35.67;;;13.02;;
20832;SDS011;56075;51.264;7.150;2023-05-10T10:16:26;33.20;;;13.05;;
20832;SDS011;56075;51.264;7.150;2023-05-10T10:19:01;35.97;;;13.52;;
20832;SDS011;56075;51.264;7.150;2023-05-10T10:21:33;33.70;;;13.40;;
20832;SDS011;56075;51.264;7.150;2023-05-10T10:24:04;34.88;;;12.93;;
20832;SDS011;56075;51.264;7.150;2023-05-10T10:26:36;35.15;;;13.00;;
20832;SDS011;56075;51.264;7.150;2023-05-10T10:29:19;31.38;;;12.65;;
20832;SDS011;56075;51.264;7.150;2023-05-10T10:31:55;31.13;;;12.65;;
20832;SDS011;56075;51.264;7.150;2023-05-10T10:34:48;35.67;;;12.57;;
20832;SDS011;56075;51.264;7.150;2023-05-10T10:37:20;29.15;;;12.10;;
20832;SDS011;56075;51.264;7.150;2023-05-10T10:39:51;26.85;;;11.25;;
20832;SDS011;56075;51.264;7.150;2023-05-10T10:45:20;28.10;;;11.32;;
20832;SDS011;56075;51.264;7.150;2023-05-10T10:50:56;24.33;;;10.52;;
20832;SDS011;56075;51.264;7.150;2023-05-10T10:53:28;21.30;;;10.13;;
20832;SDS011;56075;51.264;7.150;2023-05-10T10:56:10;22.70;;;9.90;;
20832;SDS011;56075;51.264;7.150;2023-05-10T10:58:48;21.02;;;10.07;;
20832;SDS011;56075;51.264;7.150;2023-05-10T11:01:24;19.63;;;8.85;;
20832;SDS011;56075;51.264;7.150;2023-05-10T11:06:36;18.30;;;8.95;;
20832;SDS011;56075;51.264;7.150;2023-05-10T11:09:08;22.88;;;9.98;;
20832;SDS011;56075;51.264;7.150;2023-05-10T11:11:50;19.50;;;8.82;;
20832;SDS011;56075;51.264;7.150;2023-05-10T11:14:22;24.17;;;9.68;;
20832;SDS011;56075;51.264;7.150;2023-05-10T11:16:54;23.27;;;9.15;;
20832;SDS011;56075;51.264;7.150;2023-05-10T11:19:27;24.95;;;9.38;;
20832;SDS011;56075;51.264;7.150;2023-05-10T11:24:35;21.75;;;10.07;;
20832;SDS011;56075;51.264;7.150;2023-05-10T11:27:07;23.98;;;10.35;;
20832;SDS011;56075;51.264;7.150;2023-05-10T11:29:38;21.30;;;9.63;;
20832;SDS011;56075;51.264;7.150;2023-05-10T11:32:09;20.02;;;9.18;;
20832;SDS011;56075;51.264;7.150;2023-05-10T11:34:41;18.10;;;8.10;;
20832;SDS011;56075;51.264;7.150;2023-05-10T11:37:12;20.35;;;8.65;;
20832;SDS011;56075;51.264;7.150;2023-05-10T11:39:45;15.63;;;7.72;;
20832;SDS011;56075;51.264;7.150;2023-05-10T11:42:17;19.13;;;8.43;;
20832;SDS011;56075;51.264;7.150;2023-05-10T11:44:49;17.95;;;8.00;;
20832;SDS011;56075;51.264;7.150;2023-05-10T11:47:20;19.15;;;7.63;;
20832;SDS011;56075;51.264;7.150;2023-05-10T11:49:52;16.88;;;8.13;;
20832;SDS011;56075;51.264;7.150;2023-05-10T11:52:23;23.70;;;8.98;;
20832;SDS011;56075;51.264;7.150;2023-05-10T11:54:54;17.02;;;8.63;;
20832;SDS011;56075;51.264;7.150;2023-05-10T11:57:26;16.98;;;8.15;;
20832;SDS011;56075;51.264;7.150;2023-05-10T11:59:59;13.90;;;6.97;;
20832;SDS011;56075;51.264;7.150;2023-05-10T12:02:30;17.10;;;8.05;;
20832;SDS011;56075;51.264;7.150;2023-05-10T12:05:02;17.10;;;8.68;;
20832;SDS011;56075;51.264;7.150;2023-05-10T12:07:34;19.23;;;8.90;;
20832;SDS011;56075;51.264;7.150;2023-05-10T12:10:09;18.58;;;9.18;;
20832;SDS011;56075;51.264;7.150;2023-05-10T12:12:45;21.23;;;9.13;;
20832;SDS011;56075;51.264;7.150;2023-05-10T12:15:21;21.27;;;9.35;;
20832;SDS011;56075;51.264;7.150;2023-05-10T12:17:53;22.38;;;9.65;;
20832;SDS011;56075;51.264;7.150;2023-05-10T12:20:27;22.23;;;10.30;;
20832;SDS011;56075;51.264;7.150;2023-05-10T12:22:58;20.65;;;9.52;;
20832;SDS011;56075;51.264;7.150;2023-05-10T12:25:34;21.95;;;9.35;;
20832;SDS011;56075;51.264;7.150;2023-05-10T12:28:07;20.88;;;9.93;;
20832;SDS011;56075;51.264;7.150;2023-05-10T12:30:40;24.27;;;10.13;;
20832;SDS011;56075;51.264;7.150;2023-05-10T12:33:12;21.55;;;10.43;;
20832;SDS011;56075;51.264;7.150;2023-05-10T12:35:46;23.52;;;10.50;;
20832;SDS011;56075;51.264;7.150;2023-05-10T12:38:34;22.75;;;10.75;;
20832;SDS011;56075;51.264;7.150;2023-05-10T12:41:15;23.08;;;10.10;;
20832;SDS011;56075;51.264;7.150;2023-05-10T12:43:48;23.20;;;11.13;;
20832;SDS011;56075;51.264;7.150;2023-05-10T12:46:19;21.88;;;11.25;;
20832;SDS011;56075;51.264;7.150;2023-05-10T12:48:50;22.60;;;10.60;;
20832;SDS011;56075;51.264;7.150;2023-05-10T12:51:25;28.75;;;11.25;;
20832;SDS011;56075;51.264;7.150;2023-05-10T12:53:56;26.13;;;11.40;;
20832;SDS011;56075;51.264;7.150;2023-05-10T12:56:27;25.23;;;11.70;;
20832;SDS011;56075;51.264;7.150;2023-05-10T12:58:58;27.17;;;11.70;;
20832;SDS011;56075;51.264;7.150;2023-05-10T13:01:29;22.23;;;10.90;;
20832;SDS011;56075;51.264;7.150;2023-05-10T13:04:00;20.90;;;10.25;;
20832;SDS011;56075;51.264;7.150;2023-05-10T13:06:32;20.05;;;9.43;;
20832;SDS011;56075;51.264;7.150;2023-05-10T13:09:03;17.05;;;9.43;;
20832;SDS011;56075;51.264;7.150;2023-05-10T13:11:34;18.92;;;9.25;;
20832;SDS011;56075;51.264;7.150;2023-05-10T13:14:05;20.25;;;8.75;;
20832;SDS011;56075;51.264;7.150;2023-05-10T13:16:37;20.75;;;9.48;;
20832;SDS011;56075;51.264;7.150;2023-05-10T13:19:08;19.15;;;9.45;;
20832;SDS011;56075;51.264;7.150;2023-05-10T13:21:39;18.13;;;9.20;;
20832;SDS011;56075;51.264;7.150;2023-05-10T13:24:14;21.20;;;10.38;;
20832;SDS011;56075;51.264;7.150;2023-05-10T13:26:46;17.85;;;9.35;;
20832;SDS011;56075;51.264;7.150;2023-05-10T13:29:17;21.65;;;9.73;;
20832;SDS011;56075;51.264;7.150;2023-05-10T13:31:48;19.10;;;10.15;;
20832;SDS011;56075;51.264;7.150;2023-05-10T13:34:19;21.45;;;10.05;;
20832;SDS011;56075;51.264;7.150;2023-05-10T13:36:51;17.50;;;9.57;;
20832;SDS011;56075;51.264;7.150;2023-05-10T13:39:23;18.08;;;9.85;;
20832;SDS011;56075;51.264;7.150;2023-05-10T13:41:54;22.60;;;9.77;;
20832;SDS011;56075;51.264;7.150;2023-05-10T13:44:25;22.58;;;10.63;;
20832;SDS011;56075;51.264;7.150;2023-05-10T13:46:56;18.83;;;9.18;;
20832;SDS011;56075;51.264;7.150;2023-05-10T13:49:28;20.13;;;9.48;;
20832;SDS011;56075;51.264;7.150;2023-05-10T13:51:59;23.63;;;11.23;;
20832;SDS011;56075;51.264;7.150;2023-05-10T13:54:37;24.25;;;11.20;;
20832;SDS011;56075;51.264;7.150;2023-05-10T13:57:08;24.77;;;11.65;;
20832;SDS011;56075;51.264;7.150;2023-05-10T13:59:42;26.77;;;12.25;;
20832;SDS011;56075;51.264;7.150;2023-05-10T14:02:13;24.35;;;11.60;;
20832;SDS011;56075;51.264;7.150;2023-05-10T14:04:44;26.88;;;12.90;;
20832;SDS011;56075;51.264;7.150;2023-05-10T14:07:15;26.63;;;12.45;;
20832;SDS011;56075;51.264;7.150;2023-05-10T14:09:46;31.58;;;14.15;;
20832;SDS011;56075;51.264;7.150;2023-05-10T14:12:17;30.13;;;13.82;;
20832;SDS011;56075;51.264;7.150;2023-05-10T14:14:48;34.92;;;14.43;;
20832;SDS011;56075;51.264;7.150;2023-05-10T14:17:20;29.98;;;13.10;;
20832;SDS011;56075;51.264;7.150;2023-05-10T14:19:51;31.85;;;13.35;;
20832;SDS011;56075;51.264;7.150;2023-05-10T14:22:23;26.20;;;12.30;;
20832;SDS011;56075;51.264;7.150;2023-05-10T14:24:54;27.67;;;12.65;;
20832;SDS011;56075;51.264;7.150;2023-05-10T14:27:25;29.20;;;12.57;;
20832;SDS011;56075;51.264;7.150;2023-05-10T14:29:57;26.83;;;12.65;;
20832;SDS011;56075;51.264;7.150;2023-05-10T14:32:28;24.67;;;11.02;;
20832;SDS011;56075;51.264;7.150;2023-05-10T14:34:59;23.38;;;11.07;;
20832;SDS011;56075;51.264;7.150;2023-05-10T14:37:30;23.75;;;11.50;;
20832;SDS011;56075;51.264;7.150;2023-05-10T14:40:02;25.02;;;11.48;;
20832;SDS011;56075;51.264;7.150;2023-05-10T14:42:34;22.45;;;11.43;;
20832;SDS011;56075;51.264;7.150;2023-05-10T14:45:06;22.33;;;10.43;;
20832;SDS011;56075;51.264;7.150;2023-05-10T14:47:37;23.67;;;11.30;;
20832;SDS011;56075;51.264;7.150;2023-05-10T14:50:08;23.55;;;11.88;;
20832;SDS011;56075;51.264;7.150;2023-05-10T14:52:40;24.85;;;12.48;;
20832;SDS011;56075;51.264;7.150;2023-05-10T14:55:11;23.48;;;11.55;;
20832;SDS011;56075;51.264;7.150;2023-05-10T14:57:42;21.98;;;11.05;;
20832;SDS011;56075;51.264;7.150;2023-05-10T15:00:14;21.00;;;11.45;;
20832;SDS011;56075;51.264;7.150;2023-05-10T15:02:46;21.13;;;10.00;;
20832;SDS011;56075;51.264;7.150;2023-05-10T15:05:18;22.00;;;10.57;;
20832;SDS011;56075;51.264;7.150;2023-05-10T15:07:49;22.95;;;11.45;;
20832;SDS011;56075;51.264;7.150;2023-05-10T15:10:20;23.00;;;11.40;;
20832;SDS011;56075;51.264;7.150;2023-05-10T15:12:52;21.45;;;10.98;;
20832;SDS011;56075;51.264;7.150;2023-05-10T15:15:23;20.88;;;10.13;;
20832;SDS011;56075;51.264;7.150;2023-05-10T15:17:54;18.73;;;9.80;;
20832;SDS011;56075;51.264;7.150;2023-05-10T15:20:25;18.92;;;10.10;;
20832;SDS011;56075;51.264;7.150;2023-05-10T15:22:56;19.23;;;9.52;;